Rechercher aéroport 
image banner adimage banner adimage banner ad
image banner ad

6CA0 - Hotel New Otani Los Angeles

Situé à Los Angeles, United States

ICAO - 6CA0, IATA -

Données fournies par Airmate  

Information générale

Coordonnées: N34°3'2" W118°14'33"
Élévation : 490 feet MSL.
Variation magnétique : 14° East
Voir autres Aéroports à California

Données opérationnelles

Special qualification required
Heure actuelle UTC:
Heure actuelle locale:
METAR: KHHR 260953Z AUTO 29003KT 10SM OVC013 18/15 A3002 RMK AO2 SLP163 T01830150
Voir NOTAMs / SUP AIP / TFR affectant cet aéroport [VIEW]
Fréquences de communication: [VIEW]

Pistes:

Coordonnées de l'aéroport

Adresse: Los Angeles United States

Vue satellite de 6CA0